TimeCDT,TemperatureF,Dew PointF,Humidity,Sea Level PressureIn,VisibilityMPH,Wind Direction,Wind SpeedMPH,Gust SpeedMPH,PrecipitationIn,Events,Conditions,WindDirDegrees,DateUTC
12:54 AM,37.9,28.9,70,29.73,10.0,West,17.3,28.8,N/A,,Overcast,270,2013-04-19 05:54:00
1:54 AM,37.0,28.0,70,29.73,10.0,West,15.0,25.3,N/A,,Overcast,270,2013-04-19 06:54:00
2:54 AM,37.0,27.0,67,29.73,10.0,WNW,19.6,27.6,N/A,,Overcast,290,2013-04-19 07:54:00
3:21 AM,37.4,26.6,65,29.72,10.0,West,19.6,28.8,N/A,,Overcast,280,2013-04-19 08:21:00
3:54 AM,37.0,27.0,67,29.73,10.0,West,18.4,27.6,N/A,,Overcast,270,2013-04-19 08:54:00
4:09 AM,35.6,26.6,70,29.72,10.0,West,17.3,29.9,N/A,,Overcast,270,2013-04-19 09:09:00
4:54 AM,36.0,27.0,70,29.74,10.0,West,13.8,31.1,N/A,,Unknown,270,2013-04-19 09:54:00
5:13 AM,35.6,26.6,70,29.73,10.0,West,18.4,26.5,N/A,,Overcast,270,2013-04-19 10:13:00
5:21 AM,35.6,26.6,70,29.73,10.0,West,16.1,26.5,N/A,,Overcast,270,2013-04-19 10:21:00
5:54 AM,35.1,26.1,70,29.75,10.0,West,17.3,24.2,N/A,,Overcast,270,2013-04-19 10:54:00
6:54 AM,36.0,26.1,67,29.77,10.0,West,19.6,24.2,N/A,,Overcast,260,2013-04-19 11:54:00
7:54 AM,36.0,26.1,67,29.79,10.0,West,11.5,20.7,N/A,,Overcast,270,2013-04-19 12:54:00
8:54 AM,36.0,27.0,70,29.80,10.0,West,16.1,24.2,N/A,,Overcast,260,2013-04-19 13:54:00
9:27 AM,35.6,26.6,70,29.78,10.0,West,17.3,26.5,N/A,,Overcast,260,2013-04-19 14:27:00
9:54 AM,36.0,26.1,67,29.80,10.0,West,17.3,26.5,N/A,,Overcast,270,2013-04-19 14:54:00
10:26 AM,37.4,26.6,65,29.80,10.0,West,18.4,31.1,N/A,,Overcast,280,2013-04-19 15:26:00
10:54 AM,37.9,26.1,62,29.82,10.0,West,23.0,31.1,N/A,,Overcast,280,2013-04-19 15:54:00
11:54 AM,39.0,26.1,60,29.83,10.0,WNW,23.0,27.6,N/A,,Overcast,290,2013-04-19 16:54:00
12:54 PM,41.0,26.1,55,29.84,10.0,WNW,17.3,32.2,N/A,,Overcast,290,2013-04-19 17:54:00
1:54 PM,43.0,27.0,53,29.85,10.0,WNW,19.6,24.2,N/A,,Overcast,290,2013-04-19 18:54:00
2:54 PM,44.1,27.0,51,29.86,10.0,WNW,23.0,27.6,N/A,,Overcast,290,2013-04-19 19:54:00
3:54 PM,45.0,28.0,52,29.87,10.0,WNW,23.0,28.8,N/A,,Overcast,290,2013-04-19 20:54:00
4:54 PM,46.0,26.1,46,29.90,10.0,West,19.6,29.9,N/A,,Overcast,280,2013-04-19 21:54:00
5:54 PM,45.0,25.0,46,29.93,10.0,WNW,21.9,29.9,N/A,,Overcast,290,2013-04-19 22:54:00
6:54 PM,45.0,25.0,46,29.95,10.0,West,18.4,29.9,N/A,,Overcast,280,2013-04-19 23:54:00
7:54 PM,43.0,24.1,47,29.98,10.0,West,13.8,20.7,N/A,,Mostly Cloudy,280,2013-04-20 00:54:00
8:54 PM,41.0,25.0,53,30.01,10.0,WNW,9.2,-,N/A,,Clear,290,2013-04-20 01:54:00
9:54 PM,39.0,26.1,60,30.04,10.0,WNW,9.2,-,N/A,,Clear,290,2013-04-20 02:54:00
10:54 PM,37.0,26.1,65,30.06,10.0,NW,9.2,-,N/A,,Clear,320,2013-04-20 03:54:00
11:54 PM,34.0,26.1,73,30.08,10.0,NW,5.8,-,N/A,,Clear,320,2013-04-20 04:54:00